createdAt,value
2019-04-01T00:01:01.200Z,102721.58
2019-04-01T00:03:30.390Z,102723.56
2019-04-01T00:05:59.665Z,102728.49
2019-04-01T00:08:28.826Z,102717.84
2019-04-01T00:10:58.111Z,102712.76
2019-04-01T00:13:27.308Z,102711.95
2019-04-01T00:15:56.497Z,102706.76
2019-04-01T00:18:25.633Z,102712.36
2019-04-01T00:20:54.811Z,102712.41
2019-04-01T00:23:23.995Z,102711.27
2019-04-01T00:25:53.207Z,102711.75
2019-04-01T00:28:22.401Z,102713.17
2019-04-01T00:30:51.593Z,102711.61
2019-04-01T00:33:20.786Z,102712.45
2019-04-01T00:35:50.161Z,102710.77
2019-04-01T00:38:19.455Z,102705.37
2019-04-01T00:40:48.674Z,102707.48
2019-04-01T00:43:25.648Z,102709.80
2019-04-01T00:45:56.473Z,102707.43
2019-04-01T00:48:25.630Z,102710.45
2019-04-01T00:50:54.826Z,102712.25
2019-04-01T00:53:23.998Z,102705.38
2019-04-01T00:55:53.157Z,102708.98
2019-04-01T00:58:22.318Z,102698.94
2019-04-01T01:00:51.500Z,102693.19
2019-04-01T01:03:20.688Z,102691.80
2019-04-01T01:05:49.861Z,102689.24
2019-04-01T01:08:19.065Z,102690.17
2019-04-01T01:10:48.239Z,102689.50
2019-04-01T01:13:17.405Z,102688.77
2019-04-01T01:15:46.615Z,102689.52
2019-04-01T01:18:15.762Z,102693.99
2019-04-01T01:20:44.943Z,102689.04
2019-04-01T01:23:14.146Z,102683.80
2019-04-01T01:25:43.336Z,102681.52
2019-04-01T01:28:12.538Z,102675.05
2019-04-01T01:30:41.720Z,102676.28
2019-04-01T01:33:10.876Z,102677.80
2019-04-01T01:35:40.052Z,102678.75
2019-04-01T01:38:09.202Z,102673.87
2019-04-01T01:40:38.389Z,102677.71
2019-04-01T01:43:07.607Z,102671.34
2019-04-01T01:45:36.783Z,102670.02
2019-04-01T01:48:05.945Z,102668.52
2019-04-01T01:50:35.777Z,102676.83
2019-04-01T01:53:04.958Z,102670.63
2019-04-01T01:55:34.152Z,102671.67
2019-04-01T01:58:03.334Z,102666.64
2019-04-01T02:00:33.669Z,102667.18
2019-04-01T02:03:02.871Z,102663.06
2019-04-01T02:05:32.103Z,102668.13
2019-04-01T02:08:01.443Z,102657.65
2019-04-01T02:10:30.686Z,102661.48
2019-04-01T02:12:59.911Z,102654.70
2019-04-01T02:15:29.041Z,102663.98
2019-04-01T02:17:58.385Z,102658.33
2019-04-01T02:20:28.326Z,102655.53
2019-04-01T02:22:57.772Z,102655.56
2019-04-01T02:25:26.938Z,102653.37
2019-04-01T02:27:56.122Z,102648.36
2019-04-01T02:30:25.403Z,102648.42
2019-04-01T02:32:54.530Z,102650.49
2019-04-01T02:35:23.814Z,102640.56
2019-04-01T02:37:52.969Z,102642.91
2019-04-01T02:40:22.548Z,102642.23
2019-04-01T02:42:51.888Z,102639.73
2019-04-01T02:45:21.029Z,102638.40
2019-04-01T02:47:50.365Z,102636.88
2019-04-01T02:50:19.554Z,102639.53
2019-04-01T02:52:48.715Z,102633.50
2019-04-01T02:55:17.959Z,102635.77
2019-04-01T02:57:47.107Z,102629.89
2019-04-01T03:00:16.263Z,102622.67
2019-04-01T03:02:45.447Z,102624.55
2019-04-01T03:05:14.652Z,102618.45
2019-04-01T03:07:43.864Z,102617.69
2019-04-01T03:10:13.019Z,102617.43
2019-04-01T03:12:42.217Z,102612.53
2019-04-01T03:15:11.413Z,102612.36
2019-04-01T03:17:40.581Z,102611.05
2019-04-01T03:20:09.910Z,102611.33
2019-04-01T03:22:39.100Z,102615.31
2019-04-01T03:25:08.314Z,102609.78
2019-04-01T03:27:37.664Z,102608.75
2019-04-01T03:30:06.821Z,102611.12
2019-04-01T03:32:43.945Z,102606.48
2019-04-01T03:35:07.191Z,102608.50
2019-04-01T03:37:36.359Z,102606.11
2019-04-01T03:40:07.241Z,102600.92
2019-04-01T03:42:36.547Z,102603.49
2019-04-01T03:45:06.890Z,102605.15
2019-04-01T03:47:36.075Z,102599.66
2019-04-01T03:50:05.705Z,102597.82
2019-04-01T03:52:34.881Z,102604.53
2019-04-01T03:55:04.684Z,102604.61
2019-04-01T03:57:33.874Z,102602.44
2019-04-01T04:00:04.182Z,102598.14
2019-04-01T04:02:33.411Z,102600.64
2019-04-01T04:05:02.589Z,102595.28
2019-04-01T04:07:31.806Z,102603.44
2019-04-01T04:10:00.962Z,102601.95
2019-04-01T04:12:30.150Z,102603.44
2019-04-01T04:14:59.327Z,102604.92
2019-04-01T04:17:28.473Z,102604.44
2019-04-01T04:19:57.649Z,102594.46
2019-04-01T04:22:26.950Z,102597.81
2019-04-01T04:24:56.099Z,102593.59
2019-04-01T04:27:25.290Z,102592.30
2019-04-01T04:29:54.481Z,102593.60
2019-04-01T04:32:23.667Z,102593.45
2019-04-01T04:34:56.891Z,102588.70
2019-04-01T04:37:23.804Z,102592.17
2019-04-01T04:39:52.965Z,102588.86
2019-04-01T04:42:22.158Z,102588.23
2019-04-01T04:44:51.483Z,102588.59
2019-04-01T04:47:20.702Z,102588.54
2019-04-01T04:52:42.685Z,102582.80
2019-04-01T04:55:12.021Z,102586.09
2019-04-01T04:57:47.343Z,102579.25
2019-04-01T05:00:22.449Z,102576.22
2019-04-01T05:05:34.583Z,102581.72
2019-04-01T05:08:41.554Z,102582.24
2019-04-01T05:17:38.930Z,102581.95
2019-04-01T05:29:41.881Z,102579.84
2019-04-01T05:32:25.682Z,102577.39
2019-04-01T05:41:32.133Z,102577.23
2019-04-01T05:44:02.102Z,102577.64
2019-04-01T05:46:29.797Z,102580.00
2019-04-01T05:48:59.822Z,102574.98
2019-04-01T05:51:29.731Z,102578.25
2019-04-01T05:53:59.133Z,102578.45
2019-04-01T05:56:28.355Z,102578.89
2019-04-01T06:01:53.528Z,102568.72
2019-04-01T06:04:22.929Z,102573.30
2019-04-01T06:06:52.305Z,102576.00
2019-04-01T06:09:21.596Z,102572.39
2019-04-01T06:11:53.657Z,102575.36
2019-04-01T06:14:22.882Z,102573.44
2019-04-01T06:16:52.079Z,102566.23
2019-04-01T06:25:36.966Z,102576.80
2019-04-01T06:28:06.216Z,102572.98
2019-04-01T06:30:35.441Z,102575.09
2019-04-01T06:33:05.084Z,102564.11
2019-04-01T06:38:11.263Z,102567.73
2019-04-01T06:40:40.455Z,102563.54
2019-04-01T06:43:09.611Z,102564.95
2019-04-01T06:45:38.967Z,102562.86
2019-04-01T06:48:14.803Z,102559.63
2019-04-01T07:31:36.591Z,102521.73
2019-04-01T07:37:04.867Z,102521.34
2019-04-01T07:39:39.508Z,102511.17
2019-04-01T07:42:12.621Z,102516.42
2019-04-01T07:44:47.137Z,102518.03
2019-04-01T07:47:16.875Z,102515.54
2019-04-01T07:50:05.953Z,102508.77
2019-04-01T07:52:35.504Z,102510.17
2019-04-01T07:55:24.220Z,102511.80
2019-04-01T07:57:53.524Z,102508.78
2019-04-01T08:00:22.932Z,102505.84
2019-04-01T08:02:57.657Z,102508.20
2019-04-01T08:05:33.066Z,102506.98
2019-04-01T08:13:41.942Z,102504.77
2019-04-01T08:21:52.494Z,102493.38
2019-04-01T08:27:26.881Z,102484.86
2019-04-01T08:32:32.736Z,102480.91
2019-04-01T08:35:02.335Z,102481.03
2019-04-01T08:37:31.657Z,102479.70
2019-04-01T08:40:00.977Z,102477.08
2019-04-01T08:42:50.063Z,102479.62
2019-04-01T08:45:19.661Z,102471.94
2019-04-01T08:47:48.748Z,102467.12
2019-04-01T08:50:18.020Z,102464.43
2019-04-01T08:52:47.326Z,102467.02
2019-04-01T08:55:16.628Z,102456.33
2019-04-01T09:22:02.699Z,102445.45
2019-04-01T09:24:31.966Z,102441.13
2019-04-01T09:27:01.144Z,102436.50
2019-04-01T09:29:30.401Z,102438.44
2019-04-01T09:31:59.697Z,102428.19
2019-04-01T09:34:28.938Z,102426.03
2019-04-01T09:36:59.420Z,102431.19
2019-04-01T09:39:28.564Z,102425.63
2019-04-01T09:45:01.799Z,102418.12
2019-04-01T09:47:32.492Z,102412.20
2019-04-01T09:50:05.107Z,102408.16
2019-04-01T09:52:34.440Z,102403.01
2019-04-01T09:57:43.609Z,102398.68
2019-04-01T10:00:13.127Z,102397.50
2019-04-01T10:03:03.504Z,102393.30
2019-04-01T10:05:39.074Z,102388.94
2019-04-01T10:08:41.546Z,102391.84
2019-04-01T10:10:58.891Z,102386.34
2019-04-01T10:13:28.766Z,102378.95
2019-04-01T10:15:57.980Z,102377.64
2019-04-01T11:03:30.819Z,102303.37
2019-04-01T11:06:07.899Z,102299.72
2019-04-01T11:11:20.328Z,102285.30
2019-04-01T11:16:48.888Z,102280.87
2019-04-01T11:19:25.168Z,102276.22
2019-04-01T11:36:33.830Z,102248.96
2019-04-01T11:47:04.506Z,102233.72
2019-04-01T11:49:33.813Z,102230.78
2019-04-01T11:52:19.697Z,102228.70
2019-04-01T11:57:41.013Z,102225.58
2019-04-01T12:00:13.471Z,102221.69
2019-04-01T12:08:53.721Z,102204.98
2019-04-01T12:11:24.919Z,102199.36
2019-04-01T12:47:51.897Z,102125.43
2019-04-01T12:56:38.021Z,102118.21
2019-04-01T13:01:50.316Z,102109.05
2019-04-01T13:07:22.623Z,102093.22
2019-04-01T13:09:51.945Z,102094.87
2019-04-01T14:16:31.715Z,101986.34
2019-04-01T14:19:01.085Z,101982.56
2019-04-01T14:21:30.347Z,101977.59
2019-04-01T14:23:59.578Z,101973.66
2019-04-01T14:26:28.842Z,101967.41
2019-04-01T14:28:58.167Z,101961.83
2019-04-01T14:31:27.334Z,101960.27
2019-04-01T14:33:56.659Z,101956.36
2019-04-01T14:36:25.886Z,101953.36
2019-04-01T14:38:55.121Z,101950.75
2019-04-01T14:41:24.426Z,101943.14
2019-04-01T14:43:55.247Z,101941.48
2019-04-01T14:46:24.898Z,101933.39
2019-04-01T14:48:54.134Z,101929.16
2019-04-01T14:51:23.305Z,101923.45
2019-04-01T14:53:52.502Z,101919.56
2019-04-01T14:56:21.754Z,101917.97
2019-04-01T14:58:50.988Z,101910.88
2019-04-01T15:01:20.142Z,101904.43
2019-04-01T15:03:49.430Z,101901.89
2019-04-01T15:06:18.726Z,101902.13
2019-04-01T15:08:48.268Z,101903.56
2019-04-01T15:11:17.683Z,101896.80
2019-04-01T15:13:46.934Z,101884.98
2019-04-01T15:16:16.332Z,101881.08
2019-04-01T15:18:45.858Z,101881.17
2019-04-01T15:21:15.211Z,101878.55
2019-04-01T15:23:44.436Z,101871.48
2019-04-01T15:26:13.704Z,101865.91
2019-04-01T15:28:42.945Z,101870.77
2019-04-01T15:31:12.215Z,101862.32
2019-04-01T15:33:41.482Z,101857.64
2019-04-01T15:36:10.739Z,101845.33
2019-04-01T15:38:39.912Z,101843.45
2019-04-01T15:41:09.120Z,101841.92
2019-04-01T15:43:38.454Z,101839.14
2019-04-01T15:46:07.665Z,101834.45
2019-04-01T15:48:37.035Z,101833.16
2019-04-01T15:51:07.783Z,101830.35
2019-04-01T15:53:37.060Z,101829.02
2019-04-01T15:56:06.239Z,101822.27
2019-04-01T15:58:35.547Z,101820.55
2019-04-01T16:01:04.769Z,101822.28
2019-04-01T16:03:34.109Z,101820.86
2019-04-01T16:06:07.630Z,101815.95
2019-04-01T16:08:36.104Z,101812.66
2019-04-01T16:11:05.416Z,101805.38
2019-04-01T16:13:34.657Z,101806.73
2019-04-01T16:16:04.015Z,101808.38
2019-04-01T16:18:33.523Z,101809.97
2019-04-01T16:21:02.785Z,101807.85
2019-04-01T16:23:32.092Z,101804.09
2019-04-01T16:26:01.367Z,101801.54
2019-04-01T16:28:33.532Z,101803.80
2019-04-01T16:31:02.866Z,101795.00
2019-04-01T16:33:32.286Z,101797.70
2019-04-01T16:36:01.736Z,101794.09
2019-04-01T16:38:31.116Z,101801.88
2019-04-01T16:41:03.247Z,101796.05
2019-04-01T16:43:34.110Z,101793.66
2019-04-01T16:46:07.949Z,101793.63
2019-04-01T16:48:38.307Z,101796.31
2019-04-01T16:51:07.664Z,101796.78
2019-04-01T16:53:36.933Z,101789.65
2019-04-01T16:56:06.583Z,101795.53
2019-04-01T16:58:35.785Z,101791.23
2019-04-01T17:01:05.052Z,101787.27
2019-04-01T17:03:34.451Z,101785.16
2019-04-01T17:06:03.688Z,101782.39
2019-04-01T17:08:33.051Z,101778.34
2019-04-01T17:11:02.523Z,101776.95
2019-04-01T17:13:31.836Z,101779.22
2019-04-01T17:16:01.665Z,101771.46
2019-04-01T17:18:31.250Z,101770.48
2019-04-01T17:21:02.194Z,101767.71
2019-04-01T17:23:31.438Z,101761.12
2019-04-01T17:26:00.750Z,101764.23
2019-04-01T17:28:30.025Z,101760.98
2019-04-01T17:30:59.513Z,101760.86
2019-04-01T17:33:34.746Z,101761.30
2019-04-01T17:36:05.656Z,101759.70
2019-04-01T17:38:36.074Z,101760.43
2019-04-01T17:41:05.950Z,101754.59
2019-04-01T17:43:35.183Z,101754.57
2019-04-01T17:46:04.558Z,101753.04
2019-04-01T17:48:33.898Z,101749.03
2019-04-01T17:51:03.652Z,101745.02
2019-04-01T17:53:32.952Z,101743.91
2019-04-01T17:56:02.260Z,101735.42
2019-04-01T17:58:31.662Z,101735.79
2019-04-01T18:01:00.925Z,101735.59
2019-04-01T18:03:30.389Z,101732.70
2019-04-01T18:05:59.776Z,101731.05
2019-04-01T18:08:29.129Z,101733.52
2019-04-01T18:10:58.509Z,101732.50
2019-04-01T18:13:28.791Z,101736.91
2019-04-01T18:15:58.197Z,101731.37
2019-04-01T18:18:27.749Z,101727.58
2019-04-01T18:20:58.682Z,101728.42
2019-04-01T18:23:27.925Z,101730.60
2019-04-01T18:25:57.355Z,101726.59
2019-04-01T18:28:26.624Z,101729.80
2019-04-01T18:30:55.908Z,101734.47
2019-04-01T18:33:25.174Z,101733.67
2019-04-01T18:35:54.637Z,101736.10
2019-04-01T18:38:24.318Z,101734.20
2019-04-01T18:40:53.654Z,101740.09
2019-04-01T18:43:22.986Z,101734.52
2019-04-01T18:45:52.257Z,101740.68
2019-04-01T18:48:21.615Z,101736.62
2019-04-01T18:50:50.886Z,101734.84
2019-04-01T18:53:20.215Z,101734.22
2019-04-01T18:55:52.657Z,101727.41
2019-04-01T18:58:20.395Z,101724.11
2019-04-01T19:00:49.684Z,101728.10
2019-04-01T19:03:18.919Z,101730.94
2019-04-01T19:05:48.172Z,101732.25
2019-04-01T19:08:17.376Z,101731.27
2019-04-01T19:10:46.642Z,101736.09
2019-04-01T19:13:15.988Z,101733.82
2019-04-01T19:15:45.679Z,101733.12
2019-04-01T19:18:15.205Z,101734.25
2019-04-01T19:20:55.636Z,101727.59
2019-04-01T19:23:15.496Z,101728.59
2019-04-01T19:25:44.781Z,101727.00
2019-04-01T19:28:14.092Z,101725.27
2019-04-01T19:30:43.577Z,101721.02
2019-04-01T19:33:12.827Z,101721.23
2019-04-01T19:35:42.041Z,101719.96
2019-04-01T19:38:11.258Z,101720.42
2019-04-01T19:40:40.654Z,101717.39
2019-04-01T19:43:09.975Z,101718.97
2019-04-01T19:45:40.204Z,101714.63
2019-04-01T19:48:09.089Z,101717.11
2019-04-01T19:50:38.265Z,101713.09
2019-04-01T19:53:07.486Z,101710.20
2019-04-01T19:55:36.721Z,101713.88
2019-04-01T19:58:06.014Z,101709.91
2019-04-01T20:00:35.349Z,101707.71
2019-04-01T20:03:04.593Z,101700.42
2019-04-01T20:05:33.882Z,101703.95
2019-04-01T20:08:03.152Z,101699.18
2019-04-01T20:10:32.363Z,101698.34
2019-04-01T20:13:01.580Z,101699.23
2019-04-01T20:15:30.926Z,101695.37
2019-04-01T20:18:00.194Z,101697.84
2019-04-01T20:20:30.144Z,101693.75
2019-04-01T20:23:00.579Z,101696.61
2019-04-01T20:25:29.830Z,101689.75
2019-04-01T20:27:59.081Z,101691.06
2019-04-01T20:30:28.561Z,101686.14
2019-04-01T20:32:57.887Z,101679.09
2019-04-01T20:35:28.159Z,101673.92
2019-04-01T20:37:58.311Z,101668.20
2019-04-01T20:40:27.909Z,101671.11
2019-04-01T20:42:57.218Z,101659.73
2019-04-01T20:45:26.428Z,101648.66
2019-04-01T20:47:55.629Z,101645.38
2019-04-01T20:50:24.878Z,101646.98
2019-04-01T20:52:54.174Z,101640.67
2019-04-01T20:55:23.350Z,101641.66
2019-04-01T20:57:52.542Z,101639.48
2019-04-01T21:00:21.700Z,101636.15
2019-04-01T21:02:50.903Z,101630.39
2019-04-01T21:05:20.134Z,101629.81
2019-04-01T21:07:49.295Z,101624.09
2019-04-01T21:10:18.497Z,101625.56
2019-04-01T21:12:47.673Z,101617.80
2019-04-01T21:15:17.052Z,101624.05
2019-04-01T21:17:46.264Z,101620.05
2019-04-01T21:20:15.568Z,101617.48
2019-04-01T21:22:44.921Z,101616.28
2019-04-01T21:25:14.154Z,101615.75
2019-04-01T21:27:43.416Z,101614.67
2019-04-01T21:30:12.670Z,101610.38
2019-04-01T21:32:41.868Z,101607.09
2019-04-01T21:35:11.010Z,101601.81
2019-04-01T21:37:40.229Z,101600.95
2019-04-01T21:40:09.452Z,101602.55
2019-04-01T21:42:38.751Z,101598.91
2019-04-01T21:45:09.029Z,101603.37
2019-04-01T21:47:38.217Z,101594.88
2019-04-01T21:50:08.260Z,101590.28
2019-04-01T21:52:37.516Z,101579.84
2019-04-01T21:55:08.368Z,101581.76
2019-04-01T21:57:37.754Z,101575.05
2019-04-01T22:00:14.259Z,101571.27
2019-04-01T22:02:44.360Z,101566.07
2019-04-01T22:05:13.719Z,101562.00
2019-04-01T22:07:43.065Z,101556.39
2019-04-01T22:10:12.277Z,101556.88
2019-04-01T22:12:41.452Z,101553.02
2019-04-01T22:15:10.673Z,101553.02
2019-04-01T22:17:39.842Z,101548.91
2019-04-01T22:20:09.391Z,101549.28
2019-04-01T22:22:38.976Z,101543.24
2019-04-01T22:25:08.183Z,101539.66
2019-04-01T22:27:37.357Z,101533.74
2019-04-01T22:30:08.276Z,101538.08
2019-04-01T22:32:37.454Z,101535.70
2019-04-01T22:35:07.973Z,101531.98
2019-04-01T22:37:37.979Z,101523.73
2019-04-01T22:40:07.696Z,101525.17
2019-04-01T22:42:36.855Z,101519.53
2019-04-01T22:45:09.166Z,101514.16
2019-04-01T22:47:38.382Z,101507.91
2019-04-01T22:50:07.800Z,101501.36
2019-04-01T22:52:36.998Z,101499.54
2019-04-01T22:55:06.556Z,101493.82
2019-04-01T22:57:35.733Z,101489.67
2019-04-01T23:00:05.891Z,101489.95
2019-04-01T23:02:35.074Z,101479.90
2019-04-01T23:05:05.557Z,101477.48
2019-04-01T23:07:35.301Z,101476.47
2019-04-01T23:10:07.581Z,101473.40
2019-04-01T23:12:36.819Z,101473.25
2019-04-01T23:15:07.535Z,101469.77
2019-04-01T23:17:38.271Z,101466.10
2019-04-01T23:20:07.599Z,101462.92
2019-04-01T23:22:37.192Z,101460.08
2019-04-01T23:25:07.256Z,101453.25
2019-04-01T23:27:36.433Z,101449.97
2019-04-01T23:30:10.324Z,101449.98
2019-04-01T23:32:41.852Z,101448.34
2019-04-01T23:35:12.552Z,101442.41
2019-04-01T23:37:42.109Z,101436.64
2019-04-01T23:40:11.743Z,101430.33
2019-04-01T23:42:40.979Z,101433.24
2019-04-01T23:45:10.142Z,101429.58
2019-04-01T23:47:39.392Z,101421.64
2019-04-01T23:50:09.705Z,101424.26
2019-04-01T23:52:38.476Z,101417.55
2019-04-01T23:55:07.882Z,101416.25
2019-04-01T23:57:37.053Z,101409.38
